createdAt,value
2023-02-02T00:01:47.010Z,88.86
2023-02-02T00:04:19.243Z,88.42
2023-02-02T00:06:48.633Z,88.51
2023-02-02T00:09:19.180Z,88.25
2023-02-02T00:11:51.125Z,88.34
2023-02-02T00:14:19.829Z,88.29
2023-02-02T00:16:49.167Z,88.36
2023-02-02T00:19:20.572Z,87.92
2023-02-02T00:21:49.586Z,87.96
2023-02-02T00:24:19.508Z,87.98
2023-02-02T00:26:52.140Z,88.22
2023-02-02T00:29:23.554Z,88.14
2023-02-02T00:31:52.784Z,88.29
2023-02-02T00:34:21.991Z,88.43
2023-02-02T00:36:51.799Z,88.39
2023-02-02T00:39:25.451Z,88.85
2023-02-02T00:41:55.875Z,88.94
2023-02-02T00:44:41.681Z,89.18
2023-02-02T00:47:10.051Z,89.28
2023-02-02T00:49:38.305Z,89.61
2023-02-02T00:52:06.768Z,89.48
2023-02-02T00:54:35.085Z,89.68
2023-02-02T00:57:05.815Z,89.55
2023-02-02T00:59:34.670Z,88.93
2023-02-02T01:02:03.137Z,89.07
2023-02-02T01:04:31.656Z,89.49
2023-02-02T01:07:00.069Z,89.37
2023-02-02T01:09:28.588Z,88.94
2023-02-02T01:11:56.997Z,88.96
2023-02-02T01:14:28.535Z,88.69
2023-02-02T01:16:57.456Z,88.55
2023-02-02T01:19:27.810Z,88.50
2023-02-02T01:21:56.249Z,88.80
2023-02-02T01:24:24.560Z,88.99
2023-02-02T01:26:52.885Z,88.93
2023-02-02T01:29:21.245Z,88.93
2023-02-02T01:31:51.109Z,89.33
2023-02-02T01:34:19.809Z,88.98
2023-02-02T01:36:48.270Z,88.98
2023-02-02T01:39:16.710Z,88.98
2023-02-02T01:41:45.023Z,89.42
2023-02-02T01:45:11.121Z,89.26
2023-02-02T01:47:48.614Z,89.76
2023-02-02T01:50:19.329Z,89.00
2023-02-02T01:52:50.236Z,89.35
2023-02-02T01:55:23.621Z,89.30
2023-02-02T01:57:57.990Z,89.53
2023-02-02T02:00:27.823Z,89.58
2023-02-02T02:03:02.436Z,89.57
2023-02-02T02:05:36.531Z,90.10
2023-02-02T02:08:13.359Z,90.33
2023-02-02T02:10:41.831Z,90.39
2023-02-02T02:13:10.655Z,90.38
2023-02-02T02:16:05.890Z,90.54
2023-02-02T02:18:47.085Z,90.63
2023-02-02T02:22:10.703Z,90.23
2023-02-02T02:25:37.438Z,90.29
2023-02-02T02:28:35.821Z,90.40
2023-02-02T02:31:49.146Z,90.83
2023-02-02T02:34:28.120Z,90.65
2023-02-02T02:37:05.361Z,90.72
2023-02-02T02:39:40.044Z,90.50
2023-02-02T02:42:16.436Z,90.38
2023-02-02T02:44:46.315Z,90.53
2023-02-02T02:47:14.844Z,90.62
2023-02-02T02:49:46.331Z,90.27
2023-02-02T02:52:15.900Z,90.48
2023-02-02T02:54:49.823Z,89.99
2023-02-02T02:57:39.380Z,89.95
2023-02-02T03:00:27.233Z,90.10
2023-02-02T03:03:04.530Z,90.27
2023-02-02T03:05:44.802Z,89.89
2023-02-02T03:08:18.903Z,89.74
2023-02-02T03:10:48.527Z,89.58
2023-02-02T03:13:17.960Z,89.94
2023-02-02T03:15:47.871Z,89.66
2023-02-02T03:18:19.162Z,90.13
2023-02-02T03:20:48.977Z,89.82
2023-02-02T03:23:17.665Z,90.25
2023-02-02T03:25:46.447Z,90.06
2023-02-02T03:28:15.878Z,90.31
2023-02-02T03:30:46.282Z,90.02
2023-02-02T03:33:16.387Z,90.52
2023-02-02T03:35:44.820Z,90.65
2023-02-02T03:38:14.542Z,90.85
2023-02-02T03:40:43.087Z,90.91
2023-02-02T03:43:11.562Z,90.77
2023-02-02T03:45:40.820Z,90.97
2023-02-02T03:48:09.340Z,90.80
2023-02-02T03:50:38.743Z,90.95
2023-02-02T03:53:07.243Z,91.61
2023-02-02T03:55:38.924Z,91.10
2023-02-02T03:58:07.337Z,91.53
2023-02-02T04:00:38.813Z,91.44
2023-02-02T04:03:07.354Z,91.91
2023-02-02T04:05:35.733Z,91.31
2023-02-02T04:08:04.117Z,91.16
2023-02-02T04:10:32.416Z,91.08
2023-02-02T04:13:05.157Z,90.51
2023-02-02T04:15:33.533Z,90.10
2023-02-02T04:18:03.726Z,89.61
2023-02-02T04:20:32.123Z,90.13
2023-02-02T04:23:00.729Z,90.18
2023-02-02T04:25:29.176Z,89.76
2023-02-02T04:27:57.517Z,90.08
2023-02-02T04:30:27.239Z,90.06
2023-02-02T04:32:56.564Z,90.23
2023-02-02T04:35:25.164Z,89.89
2023-02-02T04:37:53.687Z,90.04
2023-02-02T04:40:22.031Z,89.75
2023-02-02T04:42:53.251Z,89.92
2023-02-02T04:45:21.875Z,89.57
2023-02-02T04:47:52.351Z,89.88
2023-02-02T04:50:20.853Z,89.83
2023-02-02T04:52:49.159Z,89.72
2023-02-02T04:55:17.931Z,89.62
2023-02-02T04:57:46.416Z,88.95
2023-02-02T05:00:17.004Z,89.15
2023-02-02T05:02:45.494Z,88.92
2023-02-02T05:05:16.108Z,88.86
2023-02-02T05:07:44.473Z,89.16
2023-02-02T05:10:13.844Z,88.69
2023-02-02T05:12:44.946Z,88.87
2023-02-02T05:15:13.479Z,89.01
2023-02-02T05:17:41.817Z,89.27
2023-02-02T05:20:12.226Z,89.46
2023-02-02T05:22:42.120Z,89.10
2023-02-02T05:25:11.408Z,88.89
2023-02-02T05:27:39.724Z,88.90
2023-02-02T05:30:10.656Z,88.64
2023-02-02T05:32:39.017Z,89.22
2023-02-02T05:35:09.760Z,89.32
2023-02-02T05:37:38.306Z,88.89
2023-02-02T05:40:09.753Z,88.88
2023-02-02T05:42:38.218Z,89.21
2023-02-02T05:45:07.732Z,89.44
2023-02-02T05:47:36.633Z,89.38
2023-02-02T05:50:05.163Z,89.15
2023-02-02T05:52:36.607Z,89.75
2023-02-02T05:55:07.909Z,89.99
2023-02-02T05:57:36.336Z,90.05
2023-02-02T06:00:06.718Z,89.82
2023-02-02T06:02:40.631Z,90.29
2023-02-02T06:05:10.123Z,89.85
2023-02-02T06:07:38.509Z,90.44
2023-02-02T06:10:09.247Z,90.42
2023-02-02T06:12:37.423Z,90.28
2023-02-02T06:15:07.293Z,89.89
2023-02-02T06:17:36.106Z,89.74
2023-02-02T06:20:05.743Z,90.01
2023-02-02T06:22:34.447Z,89.59
2023-02-02T06:25:04.392Z,89.00
2023-02-02T06:27:34.139Z,89.54
2023-02-02T06:30:02.665Z,88.88
2023-02-02T06:32:31.259Z,89.70
2023-02-02T06:34:59.636Z,89.98
2023-02-02T06:37:30.584Z,89.76
2023-02-02T06:39:59.090Z,89.63
2023-02-02T06:42:29.852Z,90.28
2023-02-02T06:44:59.726Z,90.30
2023-02-02T06:47:28.116Z,90.22
2023-02-02T06:49:56.430Z,89.80
2023-02-02T06:52:24.962Z,89.82
2023-02-02T06:54:53.277Z,89.50
2023-02-02T06:57:21.814Z,89.50
2023-02-02T06:59:51.224Z,89.42
2023-02-02T07:02:23.641Z,88.97
2023-02-02T07:04:52.985Z,88.80
2023-02-02T07:07:21.447Z,88.44
2023-02-02T07:09:58.116Z,88.26
2023-02-02T07:12:28.800Z,88.24
2023-02-02T07:14:59.411Z,88.03
2023-02-02T07:17:29.216Z,87.93
2023-02-02T07:19:57.635Z,88.07
2023-02-02T07:22:26.155Z,88.17
2023-02-02T07:24:54.561Z,88.03
2023-02-02T07:27:22.981Z,88.10
2023-02-02T07:29:51.528Z,88.21
2023-02-02T07:32:20.107Z,88.50
2023-02-02T07:34:49.835Z,88.82
2023-02-02T07:37:18.422Z,88.83
2023-02-02T07:39:46.836Z,88.90
2023-02-02T07:42:15.445Z,89.18
2023-02-02T07:44:43.960Z,89.52
2023-02-02T07:47:12.368Z,89.87
2023-02-02T07:49:40.941Z,90.22
2023-02-02T07:52:13.095Z,90.21
2023-02-02T07:54:41.439Z,90.66
2023-02-02T07:57:13.784Z,91.07
2023-02-02T07:59:42.317Z,90.65
2023-02-02T08:02:11.603Z,90.47
2023-02-02T08:04:40.025Z,90.51
2023-02-02T08:07:08.393Z,91.20
2023-02-02T08:09:40.781Z,91.27
2023-02-02T08:12:09.205Z,91.05
2023-02-02T08:14:37.797Z,90.99
2023-02-02T08:17:09.334Z,90.51
2023-02-02T08:19:37.740Z,90.75
2023-02-02T08:22:06.145Z,90.29
2023-02-02T08:24:34.675Z,90.30
2023-02-02T08:27:06.665Z,90.95
2023-02-02T08:29:35.385Z,90.99
2023-02-02T08:32:04.361Z,90.47
2023-02-02T08:34:34.903Z,90.12
2023-02-02T08:37:03.515Z,90.06
2023-02-02T08:39:31.912Z,90.36
2023-02-02T08:42:00.449Z,89.92
2023-02-02T08:46:00.114Z,89.97
2023-02-02T08:47:18.808Z,89.90
2023-02-02T08:49:47.445Z,89.29
2023-02-02T08:52:15.885Z,89.44
2023-02-02T08:54:44.220Z,89.22
2023-02-02T08:57:12.754Z,89.36
2023-02-02T08:59:42.474Z,88.83
2023-02-02T09:02:14.069Z,89.27
2023-02-02T09:04:45.345Z,89.17
2023-02-02T09:07:13.810Z,89.22
2023-02-02T09:09:42.242Z,88.76
2023-02-02T09:12:10.656Z,88.55
2023-02-02T09:14:39.063Z,88.93
2023-02-02T09:17:08.830Z,88.39
2023-02-02T09:19:37.195Z,88.84
2023-02-02T09:22:05.596Z,88.86
2023-02-02T09:24:34.031Z,88.92
2023-02-02T09:27:02.726Z,88.43
2023-02-02T09:29:31.365Z,87.51
2023-02-02T09:31:59.801Z,86.72
2023-02-02T09:34:29.685Z,86.00
2023-02-02T09:36:58.488Z,84.95
2023-02-02T09:39:26.969Z,84.20
2023-02-02T09:42:33.878Z,83.47
2023-02-02T09:45:10.089Z,82.97
2023-02-02T09:47:55.675Z,82.86
2023-02-02T09:50:41.535Z,82.73
2023-02-02T09:53:19.623Z,82.43
2023-02-02T09:55:53.677Z,82.41
2023-02-02T09:58:27.446Z,82.34
2023-02-02T10:01:04.824Z,82.23
2023-02-02T10:03:39.072Z,82.35
2023-02-02T10:06:23.183Z,82.16
2023-02-02T10:08:56.351Z,82.53
2023-02-02T10:11:34.728Z,82.70
2023-02-02T10:14:07.631Z,82.88
2023-02-02T10:16:37.717Z,82.48
2023-02-02T10:19:12.414Z,82.63
2023-02-02T10:21:49.995Z,82.54
2023-02-02T10:24:21.578Z,83.07
2023-02-02T10:26:52.968Z,82.48
2023-02-02T10:29:48.220Z,82.60
2023-02-02T10:32:25.100Z,82.18
2023-02-02T10:35:17.301Z,82.09
2023-02-02T10:37:56.514Z,82.01
2023-02-02T10:40:42.091Z,82.12
2023-02-02T10:43:54.566Z,82.10
2023-02-02T10:46:29.020Z,81.78
2023-02-02T10:49:14.798Z,81.98
2023-02-02T10:51:47.299Z,81.72
2023-02-02T10:54:56.472Z,81.26
2023-02-02T10:57:48.169Z,80.84
2023-02-02T11:00:24.186Z,81.05
2023-02-02T11:02:53.945Z,80.71
2023-02-02T11:05:43.428Z,80.61
2023-02-02T11:08:16.658Z,80.90
2023-02-02T11:10:49.017Z,80.65
2023-02-02T11:13:28.204Z,80.71
2023-02-02T11:16:21.995Z,81.01
2023-02-02T11:18:51.199Z,80.88
2023-02-02T11:21:27.541Z,81.06
2023-02-02T11:24:01.152Z,81.31
2023-02-02T11:26:44.946Z,81.88
2023-02-02T11:29:17.496Z,82.26
2023-02-02T11:31:46.910Z,82.45
2023-02-02T11:34:22.055Z,82.49
2023-02-02T11:37:14.759Z,82.61
2023-02-02T11:39:44.723Z,83.00
2023-02-02T11:42:19.192Z,83.38
2023-02-02T11:44:51.489Z,84.06
2023-02-02T11:47:27.923Z,84.00
2023-02-02T11:49:59.672Z,84.11
2023-02-02T11:52:32.726Z,83.91
2023-02-02T11:55:04.036Z,84.08
2023-02-02T11:57:33.861Z,84.20
2023-02-02T12:00:19.873Z,84.35
2023-02-02T12:02:49.488Z,84.31
2023-02-02T12:05:37.463Z,84.67
2023-02-02T12:08:06.945Z,84.43
2023-02-02T12:10:43.541Z,84.53
2023-02-02T12:13:32.624Z,84.78
2023-02-02T12:16:20.744Z,84.65
2023-02-02T12:19:06.669Z,85.79
2023-02-02T12:21:44.332Z,87.94
2023-02-02T12:24:31.366Z,89.63
2023-02-02T12:27:19.372Z,91.57
2023-02-02T12:30:24.589Z,93.32
2023-02-02T12:33:08.708Z,94.18
2023-02-02T12:35:59.141Z,94.70
2023-02-02T12:39:01.727Z,95.26
2023-02-02T12:41:50.726Z,95.89
2023-02-02T12:44:29.829Z,96.46
2023-02-02T12:47:14.662Z,96.76
2023-02-02T12:50:04.242Z,97.63
2023-02-02T12:52:53.840Z,98.12
2023-02-02T12:55:31.137Z,98.17
2023-02-02T12:58:10.342Z,97.99
2023-02-02T13:01:22.816Z,98.43
2023-02-02T13:04:12.471Z,98.73
2023-02-02T13:07:22.328Z,99.49
2023-02-02T13:10:02.551Z,99.77
2023-02-02T13:12:35.547Z,99.85
2023-02-02T13:15:09.022Z,100.00
2023-02-02T13:17:43.125Z,100.00
2023-02-02T13:20:25.543Z,100.00
2023-02-02T13:23:00.035Z,100.00
2023-02-02T13:25:32.979Z,100.00
2023-02-02T13:28:02.032Z,100.00
2023-02-02T13:30:37.937Z,100.00
2023-02-02T13:33:16.412Z,100.00
2023-02-02T13:35:53.626Z,100.00
2023-02-02T13:38:26.080Z,100.00
2023-02-02T13:40:58.304Z,100.00
2023-02-02T13:43:38.601Z,100.00
2023-02-02T13:46:22.893Z,100.00
2023-02-02T13:49:06.664Z,100.00
2023-02-02T13:51:54.767Z,100.00
2023-02-02T13:55:22.234Z,100.00
2023-02-02T13:58:33.892Z,100.00
2023-02-02T14:01:07.427Z,100.00
2023-02-02T14:03:39.993Z,100.00
2023-02-02T14:06:13.946Z,100.00
2023-02-02T14:08:52.215Z,100.00
2023-02-02T14:11:27.027Z,100.00
2023-02-02T14:14:18.130Z,100.00
2023-02-02T14:16:52.765Z,100.00
2023-02-02T14:19:51.260Z,100.00
2023-02-02T14:22:42.977Z,100.00
2023-02-02T14:25:55.329Z,100.00
2023-02-02T14:28:46.595Z,100.00
2023-02-02T14:31:45.755Z,100.00
2023-02-02T14:34:35.807Z,100.00
2023-02-02T14:37:32.242Z,100.00
2023-02-02T14:40:20.000Z,100.00
2023-02-02T14:43:23.162Z,100.00
2023-02-02T14:46:24.446Z,100.00
2023-02-02T14:49:14.423Z,100.00
2023-02-02T14:51:59.923Z,100.00
2023-02-02T14:54:34.279Z,99.76
2023-02-02T14:57:06.154Z,99.51
2023-02-02T14:59:38.642Z,99.09
2023-02-02T15:02:18.905Z,98.36
2023-02-02T15:04:48.302Z,97.71
2023-02-02T15:07:54.900Z,97.31
2023-02-02T15:11:25.426Z,97.02
2023-02-02T15:14:07.111Z,96.82
2023-02-02T15:16:39.765Z,96.37
2023-02-02T15:19:32.436Z,96.11
2023-02-02T15:22:24.486Z,95.78
2023-02-02T15:24:54.354Z,95.26
2023-02-02T15:27:25.204Z,95.26
2023-02-02T15:29:58.283Z,94.83
2023-02-02T15:32:28.808Z,94.44
2023-02-02T15:35:02.337Z,94.07
2023-02-02T15:37:40.201Z,93.63
2023-02-02T15:40:15.592Z,93.66
2023-02-02T15:42:55.805Z,93.51
2023-02-02T15:45:48.162Z,93.33
2023-02-02T15:48:27.302Z,93.24
2023-02-02T15:50:56.386Z,93.38
2023-02-02T15:53:28.295Z,93.61
2023-02-02T15:55:58.135Z,93.60
2023-02-02T15:58:35.861Z,93.99
2023-02-02T16:01:07.191Z,93.78
2023-02-02T16:03:52.652Z,93.64
2023-02-02T16:06:22.324Z,93.60
2023-02-02T16:08:51.309Z,93.54
2023-02-02T16:11:23.285Z,93.26
2023-02-02T16:14:02.590Z,93.29
2023-02-02T16:16:33.654Z,93.36
2023-02-02T16:19:16.301Z,93.45
2023-02-02T16:21:52.572Z,93.52
2023-02-02T16:24:25.752Z,93.50
2023-02-02T16:26:55.889Z,93.46
2023-02-02T16:29:24.642Z,93.43
2023-02-02T16:31:53.354Z,93.63
2023-02-02T16:34:47.443Z,93.89
2023-02-02T16:37:18.862Z,93.82
2023-02-02T16:39:47.330Z,93.77
2023-02-02T16:42:27.017Z,93.77
2023-02-02T16:44:59.357Z,93.26
2023-02-02T16:47:39.904Z,93.21
2023-02-02T16:50:30.817Z,92.65
2023-02-02T16:53:03.510Z,92.73
2023-02-02T16:55:49.413Z,93.04
2023-02-02T16:58:23.072Z,92.95
2023-02-02T17:01:13.939Z,92.98
2023-02-02T17:03:51.450Z,92.67
2023-02-02T17:06:38.285Z,93.06
2023-02-02T17:09:34.140Z,93.01
2023-02-02T17:12:14.194Z,93.12
2023-02-02T17:14:54.490Z,92.80
2023-02-02T17:17:23.197Z,92.85
2023-02-02T17:19:52.358Z,92.70
2023-02-02T17:22:25.499Z,92.82
2023-02-02T17:24:54.599Z,92.62
2023-02-02T17:27:29.213Z,92.53
2023-02-02T17:29:58.462Z,92.55
2023-02-02T17:32:28.147Z,92.38
2023-02-02T17:34:57.228Z,92.47
2023-02-02T17:37:29.586Z,92.31
2023-02-02T17:39:57.925Z,92.15
2023-02-02T17:42:30.576Z,92.19
2023-02-02T17:44:59.078Z,92.34
2023-02-02T17:47:27.583Z,92.19
2023-02-02T17:49:55.971Z,92.27
2023-02-02T17:52:24.635Z,92.34
2023-02-02T17:54:54.530Z,92.01
2023-02-02T17:57:22.878Z,92.16
2023-02-02T17:59:51.545Z,92.17
2023-02-02T18:02:20.169Z,92.27
2023-02-02T18:04:48.573Z,91.99
2023-02-02T18:07:17.039Z,92.16
2023-02-02T18:09:45.436Z,92.20
2023-02-02T18:12:15.389Z,92.19
2023-02-02T18:14:43.999Z,92.36
2023-02-02T18:17:12.428Z,92.25
2023-02-02T18:19:44.996Z,92.30
2023-02-02T18:22:16.387Z,92.44
2023-02-02T18:24:44.994Z,92.39
2023-02-02T18:27:15.836Z,92.47
2023-02-02T18:29:44.704Z,92.58
2023-02-02T18:32:13.133Z,92.81
2023-02-02T18:34:42.219Z,93.12
2023-02-02T18:37:11.117Z,93.16
2023-02-02T18:39:39.529Z,93.26
2023-02-02T18:42:07.945Z,93.26
2023-02-02T18:44:38.642Z,93.16
2023-02-02T18:47:07.332Z,92.61
2023-02-02T18:49:35.628Z,92.77
2023-02-02T18:52:04.038Z,92.70
2023-02-02T18:54:35.554Z,92.65
2023-02-02T18:57:04.318Z,92.64
2023-02-02T18:59:32.638Z,92.44
2023-02-02T19:02:02.512Z,92.35
2023-02-02T19:04:31.389Z,92.38
2023-02-02T19:07:17.228Z,91.98
2023-02-02T19:09:45.765Z,92.02
2023-02-02T19:12:15.671Z,92.30
2023-02-02T19:14:44.089Z,92.68
2023-02-02T19:17:24.661Z,92.29
2023-02-02T19:19:53.169Z,92.39
2023-02-02T19:22:24.876Z,92.11
2023-02-02T19:24:53.264Z,92.31
2023-02-02T19:27:24.056Z,92.39
2023-02-02T19:29:56.152Z,92.38
2023-02-02T19:32:28.040Z,92.62
2023-02-02T19:35:01.252Z,93.19
2023-02-02T19:37:31.614Z,93.68
2023-02-02T19:40:19.788Z,93.37
2023-02-02T19:42:52.733Z,93.58
2023-02-02T19:45:29.383Z,93.80
2023-02-02T19:48:02.395Z,93.95
2023-02-02T19:50:38.994Z,93.56
2023-02-02T19:53:15.728Z,93.74
2023-02-02T19:55:44.631Z,93.67
2023-02-02T19:58:19.654Z,93.51
2023-02-02T20:00:49.371Z,93.57
2023-02-02T20:03:21.356Z,93.39
2023-02-02T20:05:52.231Z,93.56
2023-02-02T20:08:26.995Z,93.16
2023-02-02T20:10:58.986Z,93.15
2023-02-02T20:13:38.720Z,92.92
2023-02-02T20:16:13.723Z,93.13
2023-02-02T20:18:46.193Z,93.40
2023-02-02T20:21:25.130Z,93.30
2023-02-02T20:23:53.886Z,92.95
2023-02-02T20:26:27.145Z,92.72
2023-02-02T20:28:57.094Z,92.59
2023-02-02T20:31:38.024Z,92.55
2023-02-02T20:34:19.218Z,92.54
2023-02-02T20:36:48.821Z,92.58
2023-02-02T20:39:42.775Z,92.51
2023-02-02T20:42:11.444Z,92.58
2023-02-02T20:44:39.819Z,92.40
2023-02-02T20:47:08.856Z,92.42
2023-02-02T20:49:39.901Z,92.57
2023-02-02T20:52:13.000Z,93.02
2023-02-02T20:54:41.415Z,92.82
2023-02-02T20:57:09.823Z,92.94
2023-02-02T20:59:38.335Z,92.57
2023-02-02T21:02:06.929Z,92.82
2023-02-02T21:04:35.630Z,92.65
2023-02-02T21:07:05.483Z,92.57
2023-02-02T21:09:34.315Z,92.87
2023-02-02T21:12:03.034Z,93.04
2023-02-02T21:14:31.419Z,93.13
2023-02-02T21:17:13.983Z,93.11
2023-02-02T21:19:43.093Z,93.13
2023-02-02T21:22:13.649Z,93.54
2023-02-02T21:24:42.648Z,94.06
2023-02-02T21:27:11.346Z,93.78
2023-02-02T21:29:39.788Z,94.27
2023-02-02T21:32:08.335Z,94.19
2023-02-02T21:34:39.398Z,94.56
2023-02-02T21:37:16.790Z,94.18
2023-02-02T21:39:51.185Z,94.17
2023-02-02T21:42:21.918Z,94.54
2023-02-02T21:44:54.182Z,94.00
2023-02-02T21:47:31.126Z,93.92
2023-02-02T21:50:11.284Z,94.00
2023-02-02T21:52:41.154Z,94.12
2023-02-02T21:55:34.302Z,94.40
2023-02-02T21:58:14.580Z,94.01
2023-02-02T22:00:42.926Z,93.73
2023-02-02T22:03:28.836Z,93.42
2023-02-02T22:06:26.900Z,93.26
2023-02-02T22:09:04.145Z,92.94
2023-02-02T22:11:45.563Z,92.94
2023-02-02T22:14:20.470Z,92.76
2023-02-02T22:16:52.352Z,92.57
2023-02-02T22:19:29.698Z,92.99
2023-02-02T22:22:15.579Z,92.82
2023-02-02T22:24:47.053Z,92.72
2023-02-02T22:27:22.569Z,92.91
2023-02-02T22:29:55.505Z,92.80
2023-02-02T22:32:23.876Z,92.61
2023-02-02T22:34:52.176Z,92.58
2023-02-02T22:37:20.540Z,92.56
2023-02-02T22:39:50.255Z,92.64
2023-02-02T22:42:18.878Z,92.77
2023-02-02T22:44:48.277Z,92.97
2023-02-02T22:47:16.618Z,92.80
2023-02-02T22:49:44.942Z,92.59
2023-02-02T22:52:13.314Z,92.72
2023-02-02T22:54:41.614Z,92.59
2023-02-02T22:57:11.403Z,92.67
2023-02-02T22:59:39.781Z,92.75
2023-02-02T23:02:08.138Z,92.85
2023-02-02T23:04:36.458Z,92.99
2023-02-02T23:07:04.857Z,92.75
2023-02-02T23:09:33.241Z,92.94
2023-02-02T23:12:01.882Z,92.85
2023-02-02T23:14:31.558Z,92.75
2023-02-02T23:17:00.267Z,93.13
2023-02-02T23:19:31.249Z,92.87
2023-02-02T23:21:59.761Z,93.10
2023-02-02T23:24:28.173Z,93.10
2023-02-02T23:26:56.692Z,92.66
2023-02-02T23:29:25.077Z,92.70
2023-02-02T23:31:54.945Z,92.89
2023-02-02T23:34:23.318Z,92.60
2023-02-02T23:36:53.560Z,92.79
2023-02-02T23:39:21.962Z,92.57
2023-02-02T23:41:50.277Z,92.89
2023-02-02T23:44:18.876Z,92.85
2023-02-02T23:46:47.481Z,92.84
2023-02-02T23:49:17.539Z,92.98
2023-02-02T23:51:46.221Z,93.29
2023-02-02T23:54:16.346Z,93.20
2023-02-02T23:56:44.813Z,93.26
2023-02-02T23:59:13.198Z,93.50
